sensor_id;sensor_type;location;lat;lon;timestamp;P1;durP1;ratioP1;P2;durP2;ratioP2
8225;SDS011;4154;48.810;9.012;2023-08-01T00:00:06;5.13;;;3.60;;
8225;SDS011;4154;48.810;9.012;2023-08-01T00:02:33;4.40;;;3.20;;
8225;SDS011;4154;48.810;9.012;2023-08-01T00:04:59;4.45;;;3.45;;
8225;SDS011;4154;48.810;9.012;2023-08-01T00:07:28;4.63;;;3.65;;
8225;SDS011;4154;48.810;9.012;2023-08-01T00:09:54;4.38;;;3.42;;
8225;SDS011;4154;48.810;9.012;2023-08-01T00:12:20;5.43;;;3.45;;
8225;SDS011;4154;48.810;9.012;2023-08-01T00:14:46;4.82;;;3.83;;
8225;SDS011;4154;48.810;9.012;2023-08-01T00:17:13;4.70;;;3.55;;
8225;SDS011;4154;48.810;9.012;2023-08-01T00:19:39;5.47;;;3.65;;
8225;SDS011;4154;48.810;9.012;2023-08-01T00:22:05;4.53;;;3.50;;
8225;SDS011;4154;48.810;9.012;2023-08-01T00:24:31;5.65;;;3.83;;
8225;SDS011;4154;48.810;9.012;2023-08-01T00:26:57;4.03;;;3.33;;
8225;SDS011;4154;48.810;9.012;2023-08-01T00:29:23;5.47;;;3.53;;
8225;SDS011;4154;48.810;9.012;2023-08-01T00:31:49;5.35;;;3.60;;
8225;SDS011;4154;48.810;9.012;2023-08-01T00:34:15;4.20;;;3.60;;
8225;SDS011;4154;48.810;9.012;2023-08-01T00:36:41;5.88;;;3.67;;
8225;SDS011;4154;48.810;9.012;2023-08-01T00:39:07;6.00;;;3.90;;
8225;SDS011;4154;48.810;9.012;2023-08-01T00:41:34;4.93;;;3.90;;
8225;SDS011;4154;48.810;9.012;2023-08-01T00:44:00;5.03;;;3.42;;
8225;SDS011;4154;48.810;9.012;2023-08-01T00:46:26;5.03;;;3.60;;
8225;SDS011;4154;48.810;9.012;2023-08-01T00:48:53;5.30;;;3.72;;
8225;SDS011;4154;48.810;9.012;2023-08-01T00:51:22;5.05;;;3.90;;
8225;SDS011;4154;48.810;9.012;2023-08-01T00:53:49;5.10;;;3.67;;
8225;SDS011;4154;48.810;9.012;2023-08-01T00:56:16;5.05;;;3.55;;
8225;SDS011;4154;48.810;9.012;2023-08-01T00:58:42;4.32;;;3.40;;
8225;SDS011;4154;48.810;9.012;2023-08-01T01:01:08;5.00;;;3.60;;
8225;SDS011;4154;48.810;9.012;2023-08-01T01:03:34;3.88;;;3.47;;
8225;SDS011;4154;48.810;9.012;2023-08-01T01:06:18;4.70;;;3.40;;
8225;SDS011;4154;48.810;9.012;2023-08-01T01:08:50;3.92;;;3.38;;
8225;SDS011;4154;48.810;9.012;2023-08-01T01:11:16;6.57;;;3.92;;
8225;SDS011;4154;48.810;9.012;2023-08-01T01:13:42;4.70;;;3.47;;
8225;SDS011;4154;48.810;9.012;2023-08-01T01:16:08;4.75;;;3.45;;
8225;SDS011;4154;48.810;9.012;2023-08-01T01:18:34;6.45;;;3.50;;
8225;SDS011;4154;48.810;9.012;2023-08-01T01:21:00;5.22;;;3.83;;
8225;SDS011;4154;48.810;9.012;2023-08-01T01:23:26;4.38;;;3.50;;
8225;SDS011;4154;48.810;9.012;2023-08-01T01:25:52;3.85;;;3.33;;
8225;SDS011;4154;48.810;9.012;2023-08-01T01:28:19;4.22;;;3.72;;
8225;SDS011;4154;48.810;9.012;2023-08-01T01:30:46;4.28;;;3.42;;
8225;SDS011;4154;48.810;9.012;2023-08-01T01:36:04;5.53;;;3.40;;
8225;SDS011;4154;48.810;9.012;2023-08-01T01:38:29;4.57;;;3.40;;
8225;SDS011;4154;48.810;9.012;2023-08-01T01:40:55;4.50;;;3.72;;
8225;SDS011;4154;48.810;9.012;2023-08-01T01:43:21;4.10;;;3.70;;
8225;SDS011;4154;48.810;9.012;2023-08-01T01:45:48;4.30;;;3.40;;
8225;SDS011;4154;48.810;9.012;2023-08-01T01:48:14;4.18;;;3.78;;
8225;SDS011;4154;48.810;9.012;2023-08-01T01:50:40;5.10;;;3.70;;
8225;SDS011;4154;48.810;9.012;2023-08-01T01:53:06;4.10;;;3.70;;
8225;SDS011;4154;48.810;9.012;2023-08-01T01:55:32;5.82;;;4.00;;
8225;SDS011;4154;48.810;9.012;2023-08-01T01:57:59;4.93;;;3.83;;
8225;SDS011;4154;48.810;9.012;2023-08-01T02:00:25;6.20;;;3.90;;
8225;SDS011;4154;48.810;9.012;2023-08-01T02:02:51;4.70;;;3.90;;
8225;SDS011;4154;48.810;9.012;2023-08-01T02:05:17;4.22;;;3.70;;
8225;SDS011;4154;48.810;9.012;2023-08-01T02:07:43;3.92;;;3.63;;
8225;SDS011;4154;48.810;9.012;2023-08-01T02:10:09;3.83;;;3.42;;
8225;SDS011;4154;48.810;9.012;2023-08-01T02:12:35;5.30;;;3.80;;
8225;SDS011;4154;48.810;9.012;2023-08-01T02:15:01;4.75;;;4.22;;
8225;SDS011;4154;48.810;9.012;2023-08-01T02:17:27;5.72;;;3.83;;
8225;SDS011;4154;48.810;9.012;2023-08-01T02:19:53;5.53;;;3.78;;
8225;SDS011;4154;48.810;9.012;2023-08-01T02:22:19;5.18;;;4.07;;
8225;SDS011;4154;48.810;9.012;2023-08-01T02:24:45;5.15;;;3.78;;
8225;SDS011;4154;48.810;9.012;2023-08-01T02:27:11;6.57;;;4.00;;
8225;SDS011;4154;48.810;9.012;2023-08-01T02:29:37;4.22;;;3.80;;
8225;SDS011;4154;48.810;9.012;2023-08-01T02:32:03;5.45;;;4.00;;
8225;SDS011;4154;48.810;9.012;2023-08-01T02:34:29;5.43;;;4.15;;
8225;SDS011;4154;48.810;9.012;2023-08-01T02:36:55;4.90;;;4.10;;
8225;SDS011;4154;48.810;9.012;2023-08-01T02:39:21;4.55;;;3.92;;
8225;SDS011;4154;48.810;9.012;2023-08-01T02:41:47;6.75;;;4.22;;
8225;SDS011;4154;48.810;9.012;2023-08-01T02:44:13;5.10;;;4.20;;
8225;SDS011;4154;48.810;9.012;2023-08-01T02:46:39;4.45;;;4.00;;
8225;SDS011;4154;48.810;9.012;2023-08-01T02:49:05;6.13;;;4.30;;
8225;SDS011;4154;48.810;9.012;2023-08-01T02:51:31;5.68;;;4.63;;
8225;SDS011;4154;48.810;9.012;2023-08-01T02:53:58;4.15;;;3.60;;
8225;SDS011;4154;48.810;9.012;2023-08-01T02:56:24;4.45;;;3.88;;
8225;SDS011;4154;48.810;9.012;2023-08-01T02:58:50;3.90;;;3.50;;
8225;SDS011;4154;48.810;9.012;2023-08-01T03:01:17;5.60;;;4.38;;
8225;SDS011;4154;48.810;9.012;2023-08-01T03:03:43;5.05;;;3.55;;
8225;SDS011;4154;48.810;9.012;2023-08-01T03:06:09;5.38;;;3.85;;
8225;SDS011;4154;48.810;9.012;2023-08-01T03:08:35;4.85;;;4.00;;
8225;SDS011;4154;48.810;9.012;2023-08-01T03:11:01;4.68;;;3.85;;
8225;SDS011;4154;48.810;9.012;2023-08-01T03:13:27;4.80;;;3.95;;
8225;SDS011;4154;48.810;9.012;2023-08-01T03:15:53;5.00;;;3.70;;
8225;SDS011;4154;48.810;9.012;2023-08-01T03:18:19;4.40;;;3.72;;
8225;SDS011;4154;48.810;9.012;2023-08-01T03:20:45;4.18;;;3.53;;
8225;SDS011;4154;48.810;9.012;2023-08-01T03:23:11;4.40;;;3.55;;
8225;SDS011;4154;48.810;9.012;2023-08-01T03:25:37;4.00;;;3.60;;
8225;SDS011;4154;48.810;9.012;2023-08-01T03:28:03;4.95;;;4.28;;
8225;SDS011;4154;48.810;9.012;2023-08-01T03:30:31;4.25;;;3.67;;
8225;SDS011;4154;48.810;9.012;2023-08-01T03:32:59;5.43;;;3.75;;
8225;SDS011;4154;48.810;9.012;2023-08-01T03:35:27;5.30;;;3.90;;
8225;SDS011;4154;48.810;9.012;2023-08-01T03:37:53;4.70;;;3.50;;
8225;SDS011;4154;48.810;9.012;2023-08-01T03:40:19;5.15;;;3.70;;
8225;SDS011;4154;48.810;9.012;2023-08-01T03:42:46;5.35;;;3.95;;
8225;SDS011;4154;48.810;9.012;2023-08-01T03:45:12;4.60;;;3.70;;
8225;SDS011;4154;48.810;9.012;2023-08-01T03:47:38;4.20;;;3.70;;
8225;SDS011;4154;48.810;9.012;2023-08-01T03:50:04;4.55;;;3.40;;
8225;SDS011;4154;48.810;9.012;2023-08-01T03:52:30;4.00;;;3.60;;
8225;SDS011;4154;48.810;9.012;2023-08-01T03:54:56;3.88;;;3.20;;
8225;SDS011;4154;48.810;9.012;2023-08-01T03:57:22;5.68;;;3.40;;
8225;SDS011;4154;48.810;9.012;2023-08-01T03:59:48;4.05;;;2.95;;
8225;SDS011;4154;48.810;9.012;2023-08-01T04:02:14;4.18;;;3.50;;
8225;SDS011;4154;48.810;9.012;2023-08-01T04:04:40;5.00;;;3.10;;
8225;SDS011;4154;48.810;9.012;2023-08-01T04:07:07;3.85;;;3.30;;
8225;SDS011;4154;48.810;9.012;2023-08-01T04:09:33;3.67;;;3.08;;
8225;SDS011;4154;48.810;9.012;2023-08-01T04:11:59;3.83;;;2.90;;
8225;SDS011;4154;48.810;9.012;2023-08-01T04:14:25;4.32;;;2.80;;
8225;SDS011;4154;48.810;9.012;2023-08-01T04:16:52;3.80;;;3.05;;
8225;SDS011;4154;48.810;9.012;2023-08-01T04:19:18;6.45;;;3.47;;
8225;SDS011;4154;48.810;9.012;2023-08-01T04:21:44;3.65;;;2.90;;
8225;SDS011;4154;48.810;9.012;2023-08-01T04:24:10;4.55;;;3.00;;
8225;SDS011;4154;48.810;9.012;2023-08-01T04:26:36;4.78;;;3.20;;
8225;SDS011;4154;48.810;9.012;2023-08-01T04:29:02;4.40;;;3.40;;
8225;SDS011;4154;48.810;9.012;2023-08-01T04:31:28;3.88;;;3.22;;
8225;SDS011;4154;48.810;9.012;2023-08-01T04:33:54;5.78;;;3.45;;
8225;SDS011;4154;48.810;9.012;2023-08-01T04:36:20;4.18;;;3.05;;
8225;SDS011;4154;48.810;9.012;2023-08-01T04:38:46;3.83;;;3.30;;
8225;SDS011;4154;48.810;9.012;2023-08-01T04:41:13;3.47;;;2.70;;
8225;SDS011;4154;48.810;9.012;2023-08-01T04:43:39;4.63;;;2.80;;
8225;SDS011;4154;48.810;9.012;2023-08-01T04:46:05;3.55;;;2.60;;
8225;SDS011;4154;48.810;9.012;2023-08-01T04:48:31;5.40;;;2.90;;
8225;SDS011;4154;48.810;9.012;2023-08-01T04:50:57;3.88;;;2.80;;
8225;SDS011;4154;48.810;9.012;2023-08-01T04:53:23;4.07;;;2.90;;
8225;SDS011;4154;48.810;9.012;2023-08-01T04:55:49;2.58;;;2.30;;
8225;SDS011;4154;48.810;9.012;2023-08-01T04:58:15;3.90;;;2.53;;
8225;SDS011;4154;48.810;9.012;2023-08-01T05:00:42;3.42;;;2.40;;
8225;SDS011;4154;48.810;9.012;2023-08-01T05:03:08;3.45;;;2.88;;
8225;SDS011;4154;48.810;9.012;2023-08-01T05:05:34;4.90;;;3.00;;
8225;SDS011;4154;48.810;9.012;2023-08-01T05:08:00;3.50;;;2.80;;
8225;SDS011;4154;48.810;9.012;2023-08-01T05:10:26;4.07;;;2.63;;
8225;SDS011;4154;48.810;9.012;2023-08-01T05:12:52;3.22;;;2.70;;
8225;SDS011;4154;48.810;9.012;2023-08-01T05:15:18;4.43;;;2.90;;
8225;SDS011;4154;48.810;9.012;2023-08-01T05:17:44;3.28;;;2.45;;
8225;SDS011;4154;48.810;9.012;2023-08-01T05:20:10;4.05;;;2.60;;
8225;SDS011;4154;48.810;9.012;2023-08-01T05:22:36;3.15;;;2.63;;
8225;SDS011;4154;48.810;9.012;2023-08-01T05:25:02;3.60;;;2.80;;
8225;SDS011;4154;48.810;9.012;2023-08-01T05:27:29;3.38;;;2.60;;
8225;SDS011;4154;48.810;9.012;2023-08-01T05:29:55;3.15;;;2.83;;
8225;SDS011;4154;48.810;9.012;2023-08-01T05:32:21;3.40;;;2.60;;
8225;SDS011;4154;48.810;9.012;2023-08-01T05:34:47;3.03;;;2.72;;
8225;SDS011;4154;48.810;9.012;2023-08-01T05:37:14;4.90;;;3.13;;
8225;SDS011;4154;48.810;9.012;2023-08-01T05:39:40;4.28;;;2.90;;
8225;SDS011;4154;48.810;9.012;2023-08-01T05:42:06;5.15;;;3.00;;
8225;SDS011;4154;48.810;9.012;2023-08-01T05:44:33;3.70;;;3.00;;
8225;SDS011;4154;48.810;9.012;2023-08-01T05:46:59;6.43;;;3.38;;
8225;SDS011;4154;48.810;9.012;2023-08-01T05:49:26;3.83;;;3.10;;
8225;SDS011;4154;48.810;9.012;2023-08-01T05:51:53;4.90;;;3.78;;
8225;SDS011;4154;48.810;9.012;2023-08-01T05:54:19;5.22;;;3.30;;
8225;SDS011;4154;48.810;9.012;2023-08-01T05:56:45;4.85;;;3.60;;
8225;SDS011;4154;48.810;9.012;2023-08-01T05:59:11;5.57;;;3.55;;
8225;SDS011;4154;48.810;9.012;2023-08-01T06:01:37;4.15;;;3.42;;
8225;SDS011;4154;48.810;9.012;2023-08-01T06:04:03;6.97;;;3.70;;
8225;SDS011;4154;48.810;9.012;2023-08-01T06:06:29;4.20;;;3.33;;
8225;SDS011;4154;48.810;9.012;2023-08-01T06:08:55;6.15;;;3.90;;
8225;SDS011;4154;48.810;9.012;2023-08-01T06:11:21;3.60;;;3.10;;
8225;SDS011;4154;48.810;9.012;2023-08-01T06:13:48;4.03;;;3.58;;
8225;SDS011;4154;48.810;9.012;2023-08-01T06:16:14;5.10;;;3.63;;
8225;SDS011;4154;48.810;9.012;2023-08-01T06:18:40;4.68;;;3.42;;
8225;SDS011;4154;48.810;9.012;2023-08-01T06:21:06;5.32;;;3.83;;
8225;SDS011;4154;48.810;9.012;2023-08-01T06:23:32;4.97;;;4.13;;
8225;SDS011;4154;48.810;9.012;2023-08-01T06:25:58;4.63;;;3.90;;
8225;SDS011;4154;48.810;9.012;2023-08-01T06:28:24;4.38;;;3.80;;
8225;SDS011;4154;48.810;9.012;2023-08-01T06:30:50;5.18;;;3.90;;
8225;SDS011;4154;48.810;9.012;2023-08-01T06:33:16;4.80;;;3.95;;
8225;SDS011;4154;48.810;9.012;2023-08-01T06:35:42;5.40;;;3.90;;
8225;SDS011;4154;48.810;9.012;2023-08-01T06:38:08;5.45;;;4.05;;
8225;SDS011;4154;48.810;9.012;2023-08-01T06:40:34;6.13;;;4.20;;
8225;SDS011;4154;48.810;9.012;2023-08-01T06:43:00;4.68;;;4.20;;
8225;SDS011;4154;48.810;9.012;2023-08-01T06:45:26;6.40;;;4.40;;
8225;SDS011;4154;48.810;9.012;2023-08-01T06:47:52;5.20;;;4.28;;
8225;SDS011;4154;48.810;9.012;2023-08-01T06:50:18;5.78;;;4.30;;
8225;SDS011;4154;48.810;9.012;2023-08-01T06:52:45;6.65;;;4.78;;
8225;SDS011;4154;48.810;9.012;2023-08-01T06:55:11;5.63;;;4.97;;
8225;SDS011;4154;48.810;9.012;2023-08-01T06:57:37;5.15;;;4.45;;
8225;SDS011;4154;48.810;9.012;2023-08-01T07:00:03;6.82;;;4.50;;
8225;SDS011;4154;48.810;9.012;2023-08-01T07:02:29;7.25;;;5.00;;
8225;SDS011;4154;48.810;9.012;2023-08-01T07:04:55;5.65;;;5.00;;
8225;SDS011;4154;48.810;9.012;2023-08-01T07:07:21;6.60;;;4.78;;
8225;SDS011;4154;48.810;9.012;2023-08-01T07:09:47;6.97;;;5.13;;
8225;SDS011;4154;48.810;9.012;2023-08-01T07:12:13;5.90;;;4.82;;
8225;SDS011;4154;48.810;9.012;2023-08-01T07:14:39;6.10;;;5.10;;
8225;SDS011;4154;48.810;9.012;2023-08-01T07:17:05;7.55;;;5.40;;
8225;SDS011;4154;48.810;9.012;2023-08-01T07:19:31;6.80;;;5.55;;
8225;SDS011;4154;48.810;9.012;2023-08-01T07:21:57;5.50;;;4.75;;
8225;SDS011;4154;48.810;9.012;2023-08-01T07:24:23;7.60;;;5.10;;
8225;SDS011;4154;48.810;9.012;2023-08-01T07:26:49;7.15;;;5.10;;
8225;SDS011;4154;48.810;9.012;2023-08-01T07:29:16;7.38;;;4.95;;
8225;SDS011;4154;48.810;9.012;2023-08-01T07:31:42;6.95;;;4.97;;
8225;SDS011;4154;48.810;9.012;2023-08-01T07:34:08;5.95;;;4.90;;
8225;SDS011;4154;48.810;9.012;2023-08-01T07:36:34;7.35;;;4.47;;
8225;SDS011;4154;48.810;9.012;2023-08-01T07:39:00;5.70;;;4.70;;
8225;SDS011;4154;48.810;9.012;2023-08-01T07:41:26;5.00;;;4.20;;
8225;SDS011;4154;48.810;9.012;2023-08-01T07:43:52;6.72;;;4.20;;
8225;SDS011;4154;48.810;9.012;2023-08-01T07:46:18;5.47;;;4.50;;
8225;SDS011;4154;48.810;9.012;2023-08-01T07:48:44;4.63;;;4.07;;
8225;SDS011;4154;48.810;9.012;2023-08-01T07:51:10;4.30;;;3.85;;
8225;SDS011;4154;48.810;9.012;2023-08-01T07:53:36;4.28;;;3.78;;
8225;SDS011;4154;48.810;9.012;2023-08-01T07:56:03;4.95;;;3.53;;
8225;SDS011;4154;48.810;9.012;2023-08-01T07:58:31;4.15;;;3.53;;
8225;SDS011;4154;48.810;9.012;2023-08-01T08:01:02;5.30;;;3.45;;
8225;SDS011;4154;48.810;9.012;2023-08-01T08:03:29;3.80;;;3.30;;
8225;SDS011;4154;48.810;9.012;2023-08-01T08:05:55;3.13;;;2.83;;
8225;SDS011;4154;48.810;9.012;2023-08-01T08:08:21;3.75;;;2.70;;
8225;SDS011;4154;48.810;9.012;2023-08-01T08:10:47;3.55;;;2.70;;
8225;SDS011;4154;48.810;9.012;2023-08-01T08:13:13;3.60;;;2.60;;
8225;SDS011;4154;48.810;9.012;2023-08-01T08:15:39;3.25;;;2.50;;
8225;SDS011;4154;48.810;9.012;2023-08-01T08:18:06;3.85;;;2.55;;
8225;SDS011;4154;48.810;9.012;2023-08-01T08:20:33;2.58;;;2.25;;
8225;SDS011;4154;48.810;9.012;2023-08-01T08:23:07;3.47;;;2.42;;
8225;SDS011;4154;48.810;9.012;2023-08-01T08:25:33;3.67;;;2.22;;
8225;SDS011;4154;48.810;9.012;2023-08-01T08:27:59;2.33;;;2.13;;
8225;SDS011;4154;48.810;9.012;2023-08-01T08:30:25;2.63;;;2.25;;
8225;SDS011;4154;48.810;9.012;2023-08-01T08:32:51;2.28;;;2.08;;
8225;SDS011;4154;48.810;9.012;2023-08-01T08:35:17;2.22;;;2.03;;
8225;SDS011;4154;48.810;9.012;2023-08-01T08:37:44;34.67;;;31.33;;
8225;SDS011;4154;48.810;9.012;2023-08-01T08:40:09;51.17;;;46.05;;
8225;SDS011;4154;48.810;9.012;2023-08-01T08:42:37;32.92;;;29.77;;
8225;SDS011;4154;48.810;9.012;2023-08-01T08:45:04;3.55;;;3.25;;
8225;SDS011;4154;48.810;9.012;2023-08-01T08:47:34;2.25;;;2.05;;
8225;SDS011;4154;48.810;9.012;2023-08-01T08:50:03;2.33;;;2.10;;
8225;SDS011;4154;48.810;9.012;2023-08-01T08:52:30;3.72;;;2.08;;
8225;SDS011;4154;48.810;9.012;2023-08-01T08:54:56;2.25;;;2.05;;
8225;SDS011;4154;48.810;9.012;2023-08-01T08:57:22;2.60;;;2.20;;
8225;SDS011;4154;48.810;9.012;2023-08-01T08:59:49;2.30;;;1.70;;
8225;SDS011;4154;48.810;9.012;2023-08-01T09:02:16;1.90;;;1.67;;
8225;SDS011;4154;48.810;9.012;2023-08-01T09:04:42;2.03;;;1.63;;
8225;SDS011;4154;48.810;9.012;2023-08-01T09:07:09;2.17;;;1.50;;
8225;SDS011;4154;48.810;9.012;2023-08-01T09:09:38;1.60;;;1.50;;
8225;SDS011;4154;48.810;9.012;2023-08-01T09:12:04;1.70;;;1.60;;
8225;SDS011;4154;48.810;9.012;2023-08-01T09:14:30;1.52;;;1.40;;
8225;SDS011;4154;48.810;9.012;2023-08-01T09:17:05;1.65;;;1.52;;
8225;SDS011;4154;48.810;9.012;2023-08-01T09:19:33;1.50;;;1.40;;
8225;SDS011;4154;48.810;9.012;2023-08-01T09:21:59;2.47;;;1.52;;
8225;SDS011;4154;48.810;9.012;2023-08-01T09:24:26;1.60;;;1.50;;
8225;SDS011;4154;48.810;9.012;2023-08-01T09:26:52;1.95;;;1.55;;
8225;SDS011;4154;48.810;9.012;2023-08-01T09:29:26;1.80;;;1.42;;
8225;SDS011;4154;48.810;9.012;2023-08-01T09:31:52;1.42;;;1.23;;
8225;SDS011;4154;48.810;9.012;2023-08-01T09:34:20;2.13;;;1.70;;
8225;SDS011;4154;48.810;9.012;2023-08-01T09:36:48;1.38;;;1.27;;
8225;SDS011;4154;48.810;9.012;2023-08-01T09:39:19;1.63;;;1.40;;
8225;SDS011;4154;48.810;9.012;2023-08-01T09:41:54;1.85;;;1.45;;
8225;SDS011;4154;48.810;9.012;2023-08-01T09:44:24;1.27;;;1.20;;
8225;SDS011;4154;48.810;9.012;2023-08-01T09:47:02;1.35;;;1.20;;
8225;SDS011;4154;48.810;9.012;2023-08-01T09:49:30;2.25;;;1.23;;
8225;SDS011;4154;48.810;9.012;2023-08-01T09:51:57;1.48;;;1.20;;
8225;SDS011;4154;48.810;9.012;2023-08-01T09:54:24;1.30;;;1.20;;
8225;SDS011;4154;48.810;9.012;2023-08-01T09:56:51;1.25;;;1.15;;
8225;SDS011;4154;48.810;9.012;2023-08-01T09:59:20;1.20;;;1.10;;
8225;SDS011;4154;48.810;9.012;2023-08-01T10:01:50;1.48;;;0.90;;
8225;SDS011;4154;48.810;9.012;2023-08-01T10:04:19;1.95;;;0.90;;
8225;SDS011;4154;48.810;9.012;2023-08-01T10:06:51;1.00;;;0.90;;
8225;SDS011;4154;48.810;9.012;2023-08-01T10:09:23;1.20;;;0.80;;
8225;SDS011;4154;48.810;9.012;2023-08-01T10:11:50;0.77;;;0.70;;
8225;SDS011;4154;48.810;9.012;2023-08-01T10:14:17;0.88;;;0.80;;
8225;SDS011;4154;48.810;9.012;2023-08-01T10:16:44;1.20;;;0.70;;
8225;SDS011;4154;48.810;9.012;2023-08-01T10:19:12;0.60;;;0.60;;
8225;SDS011;4154;48.810;9.012;2023-08-01T10:21:39;1.02;;;0.93;;
8225;SDS011;4154;48.810;9.012;2023-08-01T10:24:07;0.73;;;0.73;;
8225;SDS011;4154;48.810;9.012;2023-08-01T10:26:34;0.70;;;0.70;;
8225;SDS011;4154;48.810;9.012;2023-08-01T10:29:00;1.80;;;0.80;;
8225;SDS011;4154;48.810;9.012;2023-08-01T10:31:27;2.17;;;0.90;;
8225;SDS011;4154;48.810;9.012;2023-08-01T10:34:02;1.00;;;0.90;;
8225;SDS011;4154;48.810;9.012;2023-08-01T10:36:38;0.70;;;0.70;;
8225;SDS011;4154;48.810;9.012;2023-08-01T10:39:05;0.70;;;0.70;;
8225;SDS011;4154;48.810;9.012;2023-08-01T10:41:35;0.80;;;0.80;;
8225;SDS011;4154;48.810;9.012;2023-08-01T10:44:08;0.88;;;0.88;;
8225;SDS011;4154;48.810;9.012;2023-08-01T10:46:46;1.08;;;0.85;;
8225;SDS011;4154;48.810;9.012;2023-08-01T10:49:41;0.90;;;0.88;;
8225;SDS011;4154;48.810;9.012;2023-08-01T10:54:56;0.90;;;0.90;;
8225;SDS011;4154;48.810;9.012;2023-08-01T10:57:24;1.08;;;0.98;;
8225;SDS011;4154;48.810;9.012;2023-08-01T10:59:50;1.15;;;1.05;;
8225;SDS011;4154;48.810;9.012;2023-08-01T11:02:20;1.00;;;1.00;;
8225;SDS011;4154;48.810;9.012;2023-08-01T11:04:55;1.88;;;1.10;;
8225;SDS011;4154;48.810;9.012;2023-08-01T11:07:26;1.00;;;1.00;;
8225;SDS011;4154;48.810;9.012;2023-08-01T11:10:13;1.10;;;1.00;;
8225;SDS011;4154;48.810;9.012;2023-08-01T11:12:40;1.70;;;1.20;;
8225;SDS011;4154;48.810;9.012;2023-08-01T11:15:08;1.10;;;1.10;;
8225;SDS011;4154;48.810;9.012;2023-08-01T11:17:36;1.75;;;1.10;;
8225;SDS011;4154;48.810;9.012;2023-08-01T11:20:12;2.13;;;1.10;;
8225;SDS011;4154;48.810;9.012;2023-08-01T11:22:49;1.30;;;1.20;;
8225;SDS011;4154;48.810;9.012;2023-08-01T11:25:34;1.55;;;1.20;;
8225;SDS011;4154;48.810;9.012;2023-08-01T11:28:05;1.92;;;1.30;;
8225;SDS011;4154;48.810;9.012;2023-08-01T11:30:36;2.05;;;1.15;;
8225;SDS011;4154;48.810;9.012;2023-08-01T11:33:12;1.20;;;1.10;;
8225;SDS011;4154;48.810;9.012;2023-08-01T11:35:46;1.27;;;1.17;;
8225;SDS011;4154;48.810;9.012;2023-08-01T11:38:25;1.83;;;1.25;;
8225;SDS011;4154;48.810;9.012;2023-08-01T11:40:54;1.42;;;1.30;;
8225;SDS011;4154;48.810;9.012;2023-08-01T11:43:26;1.40;;;1.27;;
8225;SDS011;4154;48.810;9.012;2023-08-01T11:46:02;1.23;;;1.13;;
8225;SDS011;4154;48.810;9.012;2023-08-01T11:48:28;4.22;;;1.45;;
8225;SDS011;4154;48.810;9.012;2023-08-01T11:50:57;1.80;;;1.30;;
8225;SDS011;4154;48.810;9.012;2023-08-01T11:53:24;1.40;;;1.30;;
8225;SDS011;4154;48.810;9.012;2023-08-01T11:55:51;1.40;;;1.30;;
8225;SDS011;4154;48.810;9.012;2023-08-01T12:01:07;1.58;;;1.40;;
8225;SDS011;4154;48.810;9.012;2023-08-01T12:03:50;2.25;;;1.63;;
8225;SDS011;4154;48.810;9.012;2023-08-01T12:06:18;1.38;;;1.20;;
8225;SDS011;4154;48.810;9.012;2023-08-01T12:08:47;1.40;;;1.30;;
8225;SDS011;4154;48.810;9.012;2023-08-01T12:11:20;1.50;;;1.25;;
8225;SDS011;4154;48.810;9.012;2023-08-01T12:14:10;1.55;;;1.30;;
8225;SDS011;4154;48.810;9.012;2023-08-01T12:16:39;1.55;;;1.30;;
8225;SDS011;4154;48.810;9.012;2023-08-01T12:19:18;1.65;;;1.30;;
8225;SDS011;4154;48.810;9.012;2023-08-01T12:21:45;1.20;;;1.10;;
8225;SDS011;4154;48.810;9.012;2023-08-01T12:24:12;1.38;;;1.27;;
8225;SDS011;4154;48.810;9.012;2023-08-01T12:26:38;2.22;;;1.40;;
8225;SDS011;4154;48.810;9.012;2023-08-01T12:29:04;1.65;;;1.40;;
8225;SDS011;4154;48.810;9.012;2023-08-01T12:31:30;1.90;;;1.20;;
8225;SDS011;4154;48.810;9.012;2023-08-01T12:33:56;2.20;;;1.40;;
8225;SDS011;4154;48.810;9.012;2023-08-01T12:36:22;1.98;;;1.50;;
8225;SDS011;4154;48.810;9.012;2023-08-01T12:38:48;1.25;;;1.15;;
8225;SDS011;4154;48.810;9.012;2023-08-01T12:41:15;3.15;;;1.40;;
8225;SDS011;4154;48.810;9.012;2023-08-01T12:43:41;2.08;;;1.20;;
8225;SDS011;4154;48.810;9.012;2023-08-01T12:46:07;2.28;;;1.40;;
8225;SDS011;4154;48.810;9.012;2023-08-01T12:48:33;1.30;;;1.20;;
8225;SDS011;4154;48.810;9.012;2023-08-01T12:50:59;1.52;;;1.42;;
8225;SDS011;4154;48.810;9.012;2023-08-01T12:53:27;1.70;;;1.33;;
8225;SDS011;4154;48.810;9.012;2023-08-01T12:55:53;1.58;;;1.30;;
8225;SDS011;4154;48.810;9.012;2023-08-01T12:58:19;1.88;;;1.40;;
8225;SDS011;4154;48.810;9.012;2023-08-01T13:00:45;1.67;;;1.40;;
8225;SDS011;4154;48.810;9.012;2023-08-01T13:03:11;2.95;;;1.33;;
8225;SDS011;4154;48.810;9.012;2023-08-01T13:05:38;3.60;;;1.70;;
8225;SDS011;4154;48.810;9.012;2023-08-01T13:08:06;1.92;;;1.50;;
8225;SDS011;4154;48.810;9.012;2023-08-01T13:10:32;4.07;;;1.40;;
8225;SDS011;4154;48.810;9.012;2023-08-01T13:13:00;1.60;;;1.42;;
8225;SDS011;4154;48.810;9.012;2023-08-01T13:15:27;1.73;;;1.35;;
8225;SDS011;4154;48.810;9.012;2023-08-01T13:17:53;1.45;;;1.30;;
8225;SDS011;4154;48.810;9.012;2023-08-01T13:20:20;1.60;;;1.45;;
8225;SDS011;4154;48.810;9.012;2023-08-01T13:22:46;1.50;;;1.40;;
8225;SDS011;4154;48.810;9.012;2023-08-01T13:25:14;1.92;;;1.50;;
8225;SDS011;4154;48.810;9.012;2023-08-01T13:27:41;1.63;;;1.52;;
8225;SDS011;4154;48.810;9.012;2023-08-01T13:30:07;1.55;;;1.40;;
8225;SDS011;4154;48.810;9.012;2023-08-01T13:32:34;2.65;;;1.58;;
8225;SDS011;4154;48.810;9.012;2023-08-01T13:35:00;1.73;;;1.40;;
8225;SDS011;4154;48.810;9.012;2023-08-01T13:37:27;1.50;;;1.40;;
8225;SDS011;4154;48.810;9.012;2023-08-01T13:39:57;1.63;;;1.40;;
8225;SDS011;4154;48.810;9.012;2023-08-01T13:42:23;1.42;;;1.33;;
8225;SDS011;4154;48.810;9.012;2023-08-01T13:44:49;1.73;;;1.40;;
8225;SDS011;4154;48.810;9.012;2023-08-01T13:47:14;2.05;;;1.50;;
8225;SDS011;4154;48.810;9.012;2023-08-01T13:49:41;1.60;;;1.50;;
8225;SDS011;4154;48.810;9.012;2023-08-01T13:52:07;1.92;;;1.45;;
8225;SDS011;4154;48.810;9.012;2023-08-01T13:54:33;2.10;;;1.60;;
8225;SDS011;4154;48.810;9.012;2023-08-01T13:56:59;3.03;;;1.58;;
8225;SDS011;4154;48.810;9.012;2023-08-01T13:59:25;3.08;;;1.55;;
8225;SDS011;4154;48.810;9.012;2023-08-01T14:01:52;2.38;;;1.40;;
8225;SDS011;4154;48.810;9.012;2023-08-01T14:04:18;2.75;;;1.40;;
8225;SDS011;4154;48.810;9.012;2023-08-01T14:06:45;1.50;;;1.40;;
8225;SDS011;4154;48.810;9.012;2023-08-01T14:09:11;1.40;;;1.30;;
8225;SDS011;4154;48.810;9.012;2023-08-01T14:11:38;2.10;;;1.50;;
8225;SDS011;4154;48.810;9.012;2023-08-01T14:14:04;2.50;;;1.65;;
8225;SDS011;4154;48.810;9.012;2023-08-01T14:16:31;1.63;;;1.20;;
8225;SDS011;4154;48.810;9.012;2023-08-01T14:18:57;1.70;;;1.50;;
8225;SDS011;4154;48.810;9.012;2023-08-01T14:21:24;2.00;;;1.70;;
8225;SDS011;4154;48.810;9.012;2023-08-01T14:23:50;1.98;;;1.33;;
8225;SDS011;4154;48.810;9.012;2023-08-01T14:26:16;1.75;;;1.40;;
8225;SDS011;4154;48.810;9.012;2023-08-01T14:28:42;2.05;;;1.50;;
8225;SDS011;4154;48.810;9.012;2023-08-01T14:31:08;2.65;;;1.35;;
8225;SDS011;4154;48.810;9.012;2023-08-01T14:33:34;2.47;;;1.50;;
8225;SDS011;4154;48.810;9.012;2023-08-01T14:36:00;2.15;;;1.30;;
8225;SDS011;4154;48.810;9.012;2023-08-01T14:38:27;2.25;;;1.50;;
8225;SDS011;4154;48.810;9.012;2023-08-01T14:40:53;1.75;;;1.35;;
8225;SDS011;4154;48.810;9.012;2023-08-01T14:43:19;1.30;;;1.20;;
8225;SDS011;4154;48.810;9.012;2023-08-01T14:45:45;3.88;;;1.30;;
8225;SDS011;4154;48.810;9.012;2023-08-01T14:48:12;2.75;;;1.45;;
8225;SDS011;4154;48.810;9.012;2023-08-01T14:50:38;1.45;;;1.35;;
8225;SDS011;4154;48.810;9.012;2023-08-01T14:53:04;1.40;;;1.30;;
8225;SDS011;4154;48.810;9.012;2023-08-01T14:55:31;3.63;;;1.63;;
8225;SDS011;4154;48.810;9.012;2023-08-01T14:57:58;1.48;;;1.27;;
8225;SDS011;4154;48.810;9.012;2023-08-01T15:00:24;1.50;;;1.40;;
8225;SDS011;4154;48.810;9.012;2023-08-01T15:02:50;1.75;;;1.60;;
8225;SDS011;4154;48.810;9.012;2023-08-01T15:05:16;2.50;;;1.58;;
8225;SDS011;4154;48.810;9.012;2023-08-01T15:07:42;1.60;;;1.27;;
8225;SDS011;4154;48.810;9.012;2023-08-01T15:10:09;1.73;;;1.48;;
8225;SDS011;4154;48.810;9.012;2023-08-01T15:12:35;1.90;;;1.70;;
8225;SDS011;4154;48.810;9.012;2023-08-01T15:15:01;1.73;;;1.40;;
8225;SDS011;4154;48.810;9.012;2023-08-01T15:17:27;2.05;;;1.42;;
8225;SDS011;4154;48.810;9.012;2023-08-01T15:19:53;2.80;;;1.50;;
8225;SDS011;4154;48.810;9.012;2023-08-01T15:22:19;1.38;;;1.27;;